sensor_id;sensor_type;location;lat;lon;timestamp;P1;durP1;ratioP1;P2;durP2;ratioP2
7460;SDS011;6757;52.258;12.840;2023-10-08T00:02:09;1.35;;;0.50;;
7460;SDS011;6757;52.258;12.840;2023-10-08T00:04:39;0.10;;;0.10;;
7460;SDS011;6757;52.258;12.840;2023-10-08T00:07:09;0.00;;;0.00;;
7460;SDS011;6757;52.258;12.840;2023-10-08T00:09:35;0.75;;;0.22;;
7460;SDS011;6757;52.258;12.840;2023-10-08T00:12:02;0.00;;;0.00;;
7460;SDS011;6757;52.258;12.840;2023-10-08T00:14:30;0.17;;;0.17;;
7460;SDS011;6757;52.258;12.840;2023-10-08T00:16:57;0.32;;;0.32;;
7460;SDS011;6757;52.258;12.840;2023-10-08T00:19:26;0.38;;;0.15;;
7460;SDS011;6757;52.258;12.840;2023-10-08T00:22:00;0.40;;;0.40;;
7460;SDS011;6757;52.258;12.840;2023-10-08T00:24:33;0.30;;;0.30;;
7460;SDS011;6757;52.258;12.840;2023-10-08T00:26:59;0.13;;;0.13;;
7460;SDS011;6757;52.258;12.840;2023-10-08T00:29:27;0.38;;;0.13;;
7460;SDS011;6757;52.258;12.840;2023-10-08T00:31:56;0.00;;;0.00;;
7460;SDS011;6757;52.258;12.840;2023-10-08T00:34:23;0.47;;;0.28;;
7460;SDS011;6757;52.258;12.840;2023-10-08T00:36:53;1.85;;;0.30;;
7460;SDS011;6757;52.258;12.840;2023-10-08T00:39:20;0.20;;;0.20;;
7460;SDS011;6757;52.258;12.840;2023-10-08T00:41:50;1.10;;;0.43;;
7460;SDS011;6757;52.258;12.840;2023-10-08T00:44:23;1.70;;;0.40;;
7460;SDS011;6757;52.258;12.840;2023-10-08T00:46:54;1.65;;;0.50;;
7460;SDS011;6757;52.258;12.840;2023-10-08T00:49:25;0.45;;;0.45;;
7460;SDS011;6757;52.258;12.840;2023-10-08T00:52:14;0.22;;;0.22;;
7460;SDS011;6757;52.258;12.840;2023-10-08T00:54:54;0.30;;;0.30;;
7460;SDS011;6757;52.258;12.840;2023-10-08T00:57:32;0.52;;;0.40;;
7460;SDS011;6757;52.258;12.840;2023-10-08T01:00:01;1.85;;;0.63;;
7460;SDS011;6757;52.258;12.840;2023-10-08T01:02:37;1.08;;;0.57;;
7460;SDS011;6757;52.258;12.840;2023-10-08T01:05:10;0.40;;;0.40;;
7460;SDS011;6757;52.258;12.840;2023-10-08T01:07:45;0.57;;;0.57;;
7460;SDS011;6757;52.258;12.840;2023-10-08T01:10:15;0.57;;;0.57;;
7460;SDS011;6757;52.258;12.840;2023-10-08T01:12:45;0.00;;;0.00;;
7460;SDS011;6757;52.258;12.840;2023-10-08T01:15:21;1.30;;;0.30;;
7460;SDS011;6757;52.258;12.840;2023-10-08T01:17:53;2.85;;;0.73;;
7460;SDS011;6757;52.258;12.840;2023-10-08T01:20:26;0.50;;;0.43;;
7460;SDS011;6757;52.258;12.840;2023-10-08T01:23:01;0.85;;;0.43;;
7460;SDS011;6757;52.258;12.840;2023-10-08T01:25:32;0.75;;;0.45;;
7460;SDS011;6757;52.258;12.840;2023-10-08T01:30:35;0.55;;;0.38;;
7460;SDS011;6757;52.258;12.840;2023-10-08T01:33:06;0.15;;;0.15;;
7460;SDS011;6757;52.258;12.840;2023-10-08T01:35:37;0.52;;;0.52;;
7460;SDS011;6757;52.258;12.840;2023-10-08T01:38:05;0.77;;;0.25;;
7460;SDS011;6757;52.258;12.840;2023-10-08T01:40:38;0.73;;;0.40;;
7460;SDS011;6757;52.258;12.840;2023-10-08T01:43:06;1.23;;;0.85;;
7460;SDS011;6757;52.258;12.840;2023-10-08T01:45:35;0.32;;;0.32;;
7460;SDS011;6757;52.258;12.840;2023-10-08T01:48:06;0.32;;;0.30;;
7460;SDS011;6757;52.258;12.840;2023-10-08T01:50:35;1.10;;;0.50;;
7460;SDS011;6757;52.258;12.840;2023-10-08T01:53:02;1.17;;;0.55;;
7460;SDS011;6757;52.258;12.840;2023-10-08T01:55:35;0.60;;;0.60;;
7460;SDS011;6757;52.258;12.840;2023-10-08T01:58:13;3.40;;;0.50;;
7460;SDS011;6757;52.258;12.840;2023-10-08T02:00:42;2.72;;;0.55;;
7460;SDS011;6757;52.258;12.840;2023-10-08T02:03:10;0.32;;;0.32;;
7460;SDS011;6757;52.258;12.840;2023-10-08T02:05:40;0.63;;;0.20;;
7460;SDS011;6757;52.258;12.840;2023-10-08T02:08:09;0.40;;;0.40;;
7460;SDS011;6757;52.258;12.840;2023-10-08T02:10:37;1.00;;;0.63;;
7460;SDS011;6757;52.258;12.840;2023-10-08T02:13:06;0.30;;;0.30;;
7460;SDS011;6757;52.258;12.840;2023-10-08T02:15:33;1.83;;;0.93;;
7460;SDS011;6757;52.258;12.840;2023-10-08T02:18:02;0.30;;;0.30;;
7460;SDS011;6757;52.258;12.840;2023-10-08T02:20:29;0.30;;;0.30;;
7460;SDS011;6757;52.258;12.840;2023-10-08T02:22:56;0.68;;;0.68;;
7460;SDS011;6757;52.258;12.840;2023-10-08T02:25:24;2.15;;;0.93;;
7460;SDS011;6757;52.258;12.840;2023-10-08T02:27:50;1.10;;;0.60;;
7460;SDS011;6757;52.258;12.840;2023-10-08T02:32:53;0.55;;;0.55;;
7460;SDS011;6757;52.258;12.840;2023-10-08T02:35:20;0.88;;;0.65;;
7460;SDS011;6757;52.258;12.840;2023-10-08T02:37:47;0.25;;;0.25;;
7460;SDS011;6757;52.258;12.840;2023-10-08T02:40:14;0.88;;;0.30;;
7460;SDS011;6757;52.258;12.840;2023-10-08T02:42:46;1.35;;;0.88;;
7460;SDS011;6757;52.258;12.840;2023-10-08T02:45:14;2.30;;;0.88;;
7460;SDS011;6757;52.258;12.840;2023-10-08T02:47:41;1.80;;;0.50;;
7460;SDS011;6757;52.258;12.840;2023-10-08T02:50:10;0.30;;;0.30;;
7460;SDS011;6757;52.258;12.840;2023-10-08T02:52:37;0.40;;;0.40;;
7460;SDS011;6757;52.258;12.840;2023-10-08T02:55:04;1.63;;;0.47;;
7460;SDS011;6757;52.258;12.840;2023-10-08T02:57:43;0.30;;;0.30;;
7460;SDS011;6757;52.258;12.840;2023-10-08T03:00:11;0.75;;;0.43;;
7460;SDS011;6757;52.258;12.840;2023-10-08T03:02:40;0.55;;;0.25;;
7460;SDS011;6757;52.258;12.840;2023-10-08T03:05:07;0.28;;;0.28;;
7460;SDS011;6757;52.258;12.840;2023-10-08T03:07:38;1.50;;;0.77;;
7460;SDS011;6757;52.258;12.840;2023-10-08T03:10:05;0.63;;;0.60;;
7460;SDS011;6757;52.258;12.840;2023-10-08T03:12:42;1.13;;;0.32;;
7460;SDS011;6757;52.258;12.840;2023-10-08T03:15:13;1.58;;;0.80;;
7460;SDS011;6757;52.258;12.840;2023-10-08T03:17:53;0.45;;;0.45;;
7460;SDS011;6757;52.258;12.840;2023-10-08T03:20:22;2.72;;;0.68;;
7460;SDS011;6757;52.258;12.840;2023-10-08T03:23:03;1.65;;;0.50;;
7460;SDS011;6757;52.258;12.840;2023-10-08T03:25:36;0.52;;;0.52;;
7460;SDS011;6757;52.258;12.840;2023-10-08T03:28:06;1.65;;;0.90;;
7460;SDS011;6757;52.258;12.840;2023-10-08T03:30:39;0.60;;;0.60;;
7460;SDS011;6757;52.258;12.840;2023-10-08T03:33:15;0.88;;;0.75;;
7460;SDS011;6757;52.258;12.840;2023-10-08T03:35:47;2.15;;;0.98;;
7460;SDS011;6757;52.258;12.840;2023-10-08T03:38:15;1.95;;;0.80;;
7460;SDS011;6757;52.258;12.840;2023-10-08T03:43:15;0.60;;;0.60;;
7460;SDS011;6757;52.258;12.840;2023-10-08T03:45:50;3.03;;;0.95;;
7460;SDS011;6757;52.258;12.840;2023-10-08T03:48:24;2.50;;;1.10;;
7460;SDS011;6757;52.258;12.840;2023-10-08T03:50:54;1.95;;;0.98;;
7460;SDS011;6757;52.258;12.840;2023-10-08T03:53:31;1.90;;;0.95;;
7460;SDS011;6757;52.258;12.840;2023-10-08T03:56:02;1.60;;;0.80;;
7460;SDS011;6757;52.258;12.840;2023-10-08T03:58:31;2.53;;;1.35;;
7460;SDS011;6757;52.258;12.840;2023-10-08T04:01:07;1.42;;;1.33;;
7460;SDS011;6757;52.258;12.840;2023-10-08T04:06:10;2.17;;;1.30;;
7460;SDS011;6757;52.258;12.840;2023-10-08T04:08:40;1.67;;;0.93;;
7460;SDS011;6757;52.258;12.840;2023-10-08T04:11:08;1.52;;;1.15;;
7460;SDS011;6757;52.258;12.840;2023-10-08T04:13:54;5.13;;;1.63;;
7460;SDS011;6757;52.258;12.840;2023-10-08T04:16:26;4.70;;;1.48;;
7460;SDS011;6757;52.258;12.840;2023-10-08T04:21:48;1.20;;;0.75;;
7460;SDS011;6757;52.258;12.840;2023-10-08T04:24:19;2.13;;;1.40;;
7460;SDS011;6757;52.258;12.840;2023-10-08T04:26:53;1.50;;;1.20;;
7460;SDS011;6757;52.258;12.840;2023-10-08T04:29:22;2.95;;;1.33;;
7460;SDS011;6757;52.258;12.840;2023-10-08T04:31:51;2.88;;;1.30;;
7460;SDS011;6757;52.258;12.840;2023-10-08T04:37:10;2.53;;;1.08;;
7460;SDS011;6757;52.258;12.840;2023-10-08T04:39:38;3.85;;;1.15;;
7460;SDS011;6757;52.258;12.840;2023-10-08T04:42:11;2.28;;;1.75;;
7460;SDS011;6757;52.258;12.840;2023-10-08T04:44:39;2.90;;;1.60;;
7460;SDS011;6757;52.258;12.840;2023-10-08T04:47:08;6.93;;;1.90;;
7460;SDS011;6757;52.258;12.840;2023-10-08T04:52:37;1.50;;;1.00;;
7460;SDS011;6757;52.258;12.840;2023-10-08T04:55:11;2.63;;;0.93;;
7460;SDS011;6757;52.258;12.840;2023-10-08T04:57:44;2.90;;;1.27;;
7460;SDS011;6757;52.258;12.840;2023-10-08T05:00:14;1.95;;;1.35;;
7460;SDS011;6757;52.258;12.840;2023-10-08T05:02:42;1.55;;;1.25;;
7460;SDS011;6757;52.258;12.840;2023-10-08T05:05:15;1.08;;;0.77;;
7460;SDS011;6757;52.258;12.840;2023-10-08T05:07:48;4.25;;;1.73;;
7460;SDS011;6757;52.258;12.840;2023-10-08T05:10:41;1.95;;;0.65;;
7460;SDS011;6757;52.258;12.840;2023-10-08T05:13:26;2.28;;;1.52;;
7460;SDS011;6757;52.258;12.840;2023-10-08T05:15:58;2.60;;;1.40;;
7460;SDS011;6757;52.258;12.840;2023-10-08T05:18:37;4.03;;;1.30;;
7460;SDS011;6757;52.258;12.840;2023-10-08T05:23:53;2.90;;;1.30;;
7460;SDS011;6757;52.258;12.840;2023-10-08T05:26:35;4.05;;;1.45;;
7460;SDS011;6757;52.258;12.840;2023-10-08T05:29:07;4.40;;;1.55;;
7460;SDS011;6757;52.258;12.840;2023-10-08T05:31:48;3.60;;;1.30;;
7460;SDS011;6757;52.258;12.840;2023-10-08T05:34:37;2.40;;;1.45;;
7460;SDS011;6757;52.258;12.840;2023-10-08T05:37:16;1.65;;;1.17;;
7460;SDS011;6757;52.258;12.840;2023-10-08T05:39:58;1.75;;;1.30;;
7460;SDS011;6757;52.258;12.840;2023-10-08T05:42:38;2.42;;;1.13;;
7460;SDS011;6757;52.258;12.840;2023-10-08T05:45:12;2.72;;;1.60;;
7460;SDS011;6757;52.258;12.840;2023-10-08T05:47:54;2.20;;;1.45;;
7460;SDS011;6757;52.258;12.840;2023-10-08T05:50:39;2.58;;;1.05;;
7460;SDS011;6757;52.258;12.840;2023-10-08T05:53:08;0.90;;;0.90;;
7460;SDS011;6757;52.258;12.840;2023-10-08T05:55:44;2.92;;;1.48;;
7460;SDS011;6757;52.258;12.840;2023-10-08T05:58:25;1.30;;;1.20;;
7460;SDS011;6757;52.258;12.840;2023-10-08T06:01:00;3.50;;;1.55;;
7460;SDS011;6757;52.258;12.840;2023-10-08T06:03:33;1.30;;;1.20;;
7460;SDS011;6757;52.258;12.840;2023-10-08T06:06:14;2.72;;;1.10;;
7460;SDS011;6757;52.258;12.840;2023-10-08T06:09:01;5.03;;;1.85;;
7460;SDS011;6757;52.258;12.840;2023-10-08T06:11:53;1.63;;;1.48;;
7460;SDS011;6757;52.258;12.840;2023-10-08T06:14:33;2.67;;;1.13;;
7460;SDS011;6757;52.258;12.840;2023-10-08T06:17:17;2.97;;;1.27;;
7460;SDS011;6757;52.258;12.840;2023-10-08T06:19:59;1.40;;;1.30;;
7460;SDS011;6757;52.258;12.840;2023-10-08T06:22:36;2.05;;;1.15;;
7460;SDS011;6757;52.258;12.840;2023-10-08T06:27:38;1.92;;;1.10;;
7460;SDS011;6757;52.258;12.840;2023-10-08T06:30:05;4.68;;;1.13;;
7460;SDS011;6757;52.258;12.840;2023-10-08T06:35:17;6.43;;;1.83;;
7460;SDS011;6757;52.258;12.840;2023-10-08T06:40:20;1.73;;;1.52;;
7460;SDS011;6757;52.258;12.840;2023-10-08T06:43:05;4.30;;;1.30;;
7460;SDS011;6757;52.258;12.840;2023-10-08T06:45:39;1.63;;;1.50;;
7460;SDS011;6757;52.258;12.840;2023-10-08T06:48:08;1.55;;;1.42;;
7460;SDS011;6757;52.258;12.840;2023-10-08T06:50:42;2.50;;;1.75;;
7460;SDS011;6757;52.258;12.840;2023-10-08T06:53:10;2.20;;;1.13;;
7460;SDS011;6757;52.258;12.840;2023-10-08T06:55:40;1.92;;;1.10;;
7460;SDS011;6757;52.258;12.840;2023-10-08T07:00:44;1.85;;;1.17;;
7460;SDS011;6757;52.258;12.840;2023-10-08T07:03:14;1.67;;;0.98;;
7460;SDS011;6757;52.258;12.840;2023-10-08T07:08:18;2.20;;;1.23;;
7460;SDS011;6757;52.258;12.840;2023-10-08T07:10:46;1.88;;;1.17;;
7460;SDS011;6757;52.258;12.840;2023-10-08T07:13:14;2.58;;;1.38;;
7460;SDS011;6757;52.258;12.840;2023-10-08T07:15:42;3.22;;;1.73;;
7460;SDS011;6757;52.258;12.840;2023-10-08T07:18:10;1.75;;;1.10;;
7460;SDS011;6757;52.258;12.840;2023-10-08T07:20:38;2.67;;;1.23;;
7460;SDS011;6757;52.258;12.840;2023-10-08T07:23:07;5.70;;;1.88;;
7460;SDS011;6757;52.258;12.840;2023-10-08T07:28:20;6.22;;;2.10;;
7460;SDS011;6757;52.258;12.840;2023-10-08T07:30:48;0.98;;;0.88;;
7460;SDS011;6757;52.258;12.840;2023-10-08T07:33:15;1.80;;;1.27;;
7460;SDS011;6757;52.258;12.840;2023-10-08T07:35:45;2.50;;;1.40;;
7460;SDS011;6757;52.258;12.840;2023-10-08T07:38:22;2.78;;;1.45;;
7460;SDS011;6757;52.258;12.840;2023-10-08T07:45:58;4.63;;;1.83;;
7460;SDS011;6757;52.258;12.840;2023-10-08T07:48:25;2.67;;;1.27;;
7460;SDS011;6757;52.258;12.840;2023-10-08T07:50:54;5.25;;;1.80;;
7460;SDS011;6757;52.258;12.840;2023-10-08T07:53:22;3.97;;;1.55;;
7460;SDS011;6757;52.258;12.840;2023-10-08T07:55:51;3.60;;;1.92;;
7460;SDS011;6757;52.258;12.840;2023-10-08T07:58:18;4.32;;;1.85;;
7460;SDS011;6757;52.258;12.840;2023-10-08T08:00:45;5.15;;;1.65;;
7460;SDS011;6757;52.258;12.840;2023-10-08T08:03:21;2.55;;;1.60;;
7460;SDS011;6757;52.258;12.840;2023-10-08T08:05:48;3.92;;;1.73;;
7460;SDS011;6757;52.258;12.840;2023-10-08T08:08:17;5.30;;;1.90;;
7460;SDS011;6757;52.258;12.840;2023-10-08T08:10:47;2.20;;;1.30;;
7460;SDS011;6757;52.258;12.840;2023-10-08T08:13:22;2.65;;;1.52;;
7460;SDS011;6757;52.258;12.840;2023-10-08T08:15:53;1.77;;;1.42;;
7460;SDS011;6757;52.258;12.840;2023-10-08T08:18:24;1.48;;;1.25;;
7460;SDS011;6757;52.258;12.840;2023-10-08T08:20:58;2.08;;;1.35;;
7460;SDS011;6757;52.258;12.840;2023-10-08T08:23:27;1.17;;;1.17;;
7460;SDS011;6757;52.258;12.840;2023-10-08T08:25:56;3.20;;;1.48;;
7460;SDS011;6757;52.258;12.840;2023-10-08T08:28:36;2.22;;;1.42;;
7460;SDS011;6757;52.258;12.840;2023-10-08T08:31:03;2.35;;;1.25;;
7460;SDS011;6757;52.258;12.840;2023-10-08T08:33:39;4.82;;;1.90;;
7460;SDS011;6757;52.258;12.840;2023-10-08T08:36:18;2.30;;;1.10;;
7460;SDS011;6757;52.258;12.840;2023-10-08T08:38:46;2.85;;;1.60;;
7460;SDS011;6757;52.258;12.840;2023-10-08T08:41:13;3.75;;;1.40;;
7460;SDS011;6757;52.258;12.840;2023-10-08T08:46:18;3.38;;;1.42;;
7460;SDS011;6757;52.258;12.840;2023-10-08T08:48:46;2.60;;;1.10;;
7460;SDS011;6757;52.258;12.840;2023-10-08T08:51:14;2.70;;;1.35;;
7460;SDS011;6757;52.258;12.840;2023-10-08T08:53:41;3.08;;;1.55;;
7460;SDS011;6757;52.258;12.840;2023-10-08T08:56:08;3.58;;;1.63;;
7460;SDS011;6757;52.258;12.840;2023-10-08T08:58:36;3.05;;;1.23;;
7460;SDS011;6757;52.258;12.840;2023-10-08T09:03:39;1.70;;;1.38;;
7460;SDS011;6757;52.258;12.840;2023-10-08T09:16:30;1.10;;;1.10;;
7460;SDS011;6757;52.258;12.840;2023-10-08T09:19:01;1.40;;;1.30;;
7460;SDS011;6757;52.258;12.840;2023-10-08T09:21:29;1.48;;;1.38;;
7460;SDS011;6757;52.258;12.840;2023-10-08T09:23:56;3.17;;;1.23;;
7460;SDS011;6757;52.258;12.840;2023-10-08T09:26:23;4.47;;;1.35;;
7460;SDS011;6757;52.258;12.840;2023-10-08T09:28:52;1.95;;;1.35;;
7460;SDS011;6757;52.258;12.840;2023-10-08T09:31:22;2.63;;;1.20;;
7460;SDS011;6757;52.258;12.840;2023-10-08T09:33:54;1.20;;;1.08;;
7460;SDS011;6757;52.258;12.840;2023-10-08T09:36:22;2.97;;;1.30;;
7460;SDS011;6757;52.258;12.840;2023-10-08T09:38:56;1.38;;;0.93;;
7460;SDS011;6757;52.258;12.840;2023-10-08T09:41:29;6.53;;;1.23;;
7460;SDS011;6757;52.258;12.840;2023-10-08T09:43:57;1.60;;;1.30;;
7460;SDS011;6757;52.258;12.840;2023-10-08T09:46:26;1.23;;;0.93;;
7460;SDS011;6757;52.258;12.840;2023-10-08T09:49:00;2.17;;;1.15;;
7460;SDS011;6757;52.258;12.840;2023-10-08T09:51:32;3.78;;;1.80;;
7460;SDS011;6757;52.258;12.840;2023-10-08T09:54:01;4.20;;;1.35;;
7460;SDS011;6757;52.258;12.840;2023-10-08T09:56:35;1.85;;;1.30;;
7460;SDS011;6757;52.258;12.840;2023-10-08T09:59:04;2.75;;;1.00;;
7460;SDS011;6757;52.258;12.840;2023-10-08T10:01:32;2.97;;;1.23;;
7460;SDS011;6757;52.258;12.840;2023-10-08T10:04:00;0.60;;;0.60;;
7460;SDS011;6757;52.258;12.840;2023-10-08T10:06:27;2.53;;;1.13;;
7460;SDS011;6757;52.258;12.840;2023-10-08T10:08:55;3.17;;;1.33;;
7460;SDS011;6757;52.258;12.840;2023-10-08T10:11:25;3.28;;;1.30;;
7460;SDS011;6757;52.258;12.840;2023-10-08T10:13:57;1.88;;;1.20;;
7460;SDS011;6757;52.258;12.840;2023-10-08T10:16:26;0.82;;;0.82;;
7460;SDS011;6757;52.258;12.840;2023-10-08T10:18:54;1.00;;;1.00;;
7460;SDS011;6757;52.258;12.840;2023-10-08T10:21:31;1.10;;;0.88;;
7460;SDS011;6757;52.258;12.840;2023-10-08T10:23:59;1.15;;;0.93;;
7460;SDS011;6757;52.258;12.840;2023-10-08T10:26:27;1.42;;;0.90;;
7460;SDS011;6757;52.258;12.840;2023-10-08T10:31:48;3.63;;;1.02;;
7460;SDS011;6757;52.258;12.840;2023-10-08T10:34:19;1.85;;;1.05;;
7460;SDS011;6757;52.258;12.840;2023-10-08T10:36:50;3.33;;;1.42;;
7460;SDS011;6757;52.258;12.840;2023-10-08T10:39:23;1.10;;;0.77;;
7460;SDS011;6757;52.258;12.840;2023-10-08T10:41:56;0.80;;;0.55;;
7460;SDS011;6757;52.258;12.840;2023-10-08T10:44:27;1.00;;;0.90;;
7460;SDS011;6757;52.258;12.840;2023-10-08T10:46:55;1.45;;;1.10;;
7460;SDS011;6757;52.258;12.840;2023-10-08T10:49:41;0.05;;;0.05;;
7460;SDS011;6757;52.258;12.840;2023-10-08T10:52:19;2.20;;;1.25;;
7460;SDS011;6757;52.258;12.840;2023-10-08T10:54:56;1.85;;;1.05;;
7460;SDS011;6757;52.258;12.840;2023-10-08T10:57:31;2.25;;;0.98;;
7460;SDS011;6757;52.258;12.840;2023-10-08T11:00:01;1.48;;;1.23;;
7460;SDS011;6757;52.258;12.840;2023-10-08T11:02:52;1.02;;;0.93;;
7460;SDS011;6757;52.258;12.840;2023-10-08T11:05:21;1.13;;;0.88;;
7460;SDS011;6757;52.258;12.840;2023-10-08T11:07:54;5.00;;;1.15;;
7460;SDS011;6757;52.258;12.840;2023-10-08T11:10:25;3.30;;;1.35;;
7460;SDS011;6757;52.258;12.840;2023-10-08T11:12:53;1.55;;;0.85;;
7460;SDS011;6757;52.258;12.840;2023-10-08T11:15:23;1.23;;;1.17;;
7460;SDS011;6757;52.258;12.840;2023-10-08T11:17:56;3.40;;;1.40;;
7460;SDS011;6757;52.258;12.840;2023-10-08T11:20:24;2.35;;;1.15;;
7460;SDS011;6757;52.258;12.840;2023-10-08T11:22:52;1.55;;;1.27;;
7460;SDS011;6757;52.258;12.840;2023-10-08T11:25:21;0.47;;;0.47;;
7460;SDS011;6757;52.258;12.840;2023-10-08T11:27:50;0.50;;;0.50;;
7460;SDS011;6757;52.258;12.840;2023-10-08T11:30:24;1.23;;;0.73;;
7460;SDS011;6757;52.258;12.840;2023-10-08T11:32:55;2.10;;;1.10;;
7460;SDS011;6757;52.258;12.840;2023-10-08T11:35:22;1.05;;;0.50;;
7460;SDS011;6757;52.258;12.840;2023-10-08T11:37:52;0.50;;;0.45;;
7460;SDS011;6757;52.258;12.840;2023-10-08T11:40:27;0.55;;;0.55;;
7460;SDS011;6757;52.258;12.840;2023-10-08T11:42:54;1.80;;;0.85;;
7460;SDS011;6757;52.258;12.840;2023-10-08T11:45:23;5.68;;;1.02;;
7460;SDS011;6757;52.258;12.840;2023-10-08T11:47:51;1.10;;;0.75;;
7460;SDS011;6757;52.258;12.840;2023-10-08T11:50:25;1.65;;;0.90;;
7460;SDS011;6757;52.258;12.840;2023-10-08T11:53:03;0.90;;;0.45;;
7460;SDS011;6757;52.258;12.840;2023-10-08T11:55:32;4.00;;;1.08;;
7460;SDS011;6757;52.258;12.840;2023-10-08T11:58:02;0.80;;;0.80;;
7460;SDS011;6757;52.258;12.840;2023-10-08T12:00:35;1.20;;;0.52;;
7460;SDS011;6757;52.258;12.840;2023-10-08T12:03:09;0.75;;;0.57;;
7460;SDS011;6757;52.258;12.840;2023-10-08T12:05:37;1.10;;;0.90;;
7460;SDS011;6757;52.258;12.840;2023-10-08T12:08:12;0.50;;;0.50;;
7460;SDS011;6757;52.258;12.840;2023-10-08T12:10:40;0.20;;;0.20;;
7460;SDS011;6757;52.258;12.840;2023-10-08T12:13:08;1.17;;;0.65;;
7460;SDS011;6757;52.258;12.840;2023-10-08T12:15:36;0.77;;;0.77;;
7460;SDS011;6757;52.258;12.840;2023-10-08T12:18:04;1.05;;;0.55;;
7460;SDS011;6757;52.258;12.840;2023-10-08T12:20:40;2.58;;;0.63;;
7460;SDS011;6757;52.258;12.840;2023-10-08T12:23:09;1.08;;;0.65;;
7460;SDS011;6757;52.258;12.840;2023-10-08T12:25:36;2.10;;;0.65;;
7460;SDS011;6757;52.258;12.840;2023-10-08T12:28:05;2.28;;;1.00;;
7460;SDS011;6757;52.258;12.840;2023-10-08T12:30:32;2.38;;;0.73;;
7460;SDS011;6757;52.258;12.840;2023-10-08T12:33:06;1.33;;;1.05;;
7460;SDS011;6757;52.258;12.840;2023-10-08T12:38:05;1.70;;;0.85;;
7460;SDS011;6757;52.258;12.840;2023-10-08T12:40:33;1.83;;;0.98;;
7460;SDS011;6757;52.258;12.840;2023-10-08T12:43:14;2.03;;;1.20;;
7460;SDS011;6757;52.258;12.840;2023-10-08T12:45:44;1.77;;;0.90;;
7460;SDS011;6757;52.258;12.840;2023-10-08T12:48:17;3.33;;;1.27;;
7460;SDS011;6757;52.258;12.840;2023-10-08T12:50:45;2.30;;;1.02;;
7460;SDS011;6757;52.258;12.840;2023-10-08T12:53:18;3.17;;;1.08;;
7460;SDS011;6757;52.258;12.840;2023-10-08T12:55:49;2.28;;;0.82;;
7460;SDS011;6757;52.258;12.840;2023-10-08T12:58:20;2.83;;;1.08;;
7460;SDS011;6757;52.258;12.840;2023-10-08T13:00:50;2.10;;;1.30;;
7460;SDS011;6757;52.258;12.840;2023-10-08T13:03:23;2.33;;;1.20;;
7460;SDS011;6757;52.258;12.840;2023-10-08T13:05:56;3.13;;;1.42;;
7460;SDS011;6757;52.258;12.840;2023-10-08T13:08:28;2.28;;;0.85;;
7460;SDS011;6757;52.258;12.840;2023-10-08T13:10:56;2.72;;;1.27;;
7460;SDS011;6757;52.258;12.840;2023-10-08T13:13:27;1.45;;;0.98;;
7460;SDS011;6757;52.258;12.840;2023-10-08T13:15:54;2.42;;;1.02;;
7460;SDS011;6757;52.258;12.840;2023-10-08T13:18:23;4.15;;;1.40;;
7460;SDS011;6757;52.258;12.840;2023-10-08T13:20:50;2.42;;;1.23;;
7460;SDS011;6757;52.258;12.840;2023-10-08T13:23:17;2.47;;;1.02;;
7460;SDS011;6757;52.258;12.840;2023-10-08T13:25:44;1.08;;;1.00;;
7460;SDS011;6757;52.258;12.840;2023-10-08T13:28:16;2.13;;;1.40;;
7460;SDS011;6757;52.258;12.840;2023-10-08T13:30:47;2.05;;;1.00;;
7460;SDS011;6757;52.258;12.840;2023-10-08T13:33:17;1.65;;;0.88;;
7460;SDS011;6757;52.258;12.840;2023-10-08T13:35:44;2.40;;;0.68;;
7460;SDS011;6757;52.258;12.840;2023-10-08T13:38:14;1.73;;;1.13;;
7460;SDS011;6757;52.258;12.840;2023-10-08T13:40:41;1.55;;;0.80;;
7460;SDS011;6757;52.258;12.840;2023-10-08T13:43:27;2.25;;;1.10;;
7460;SDS011;6757;52.258;12.840;2023-10-08T13:46:00;1.77;;;0.90;;
7460;SDS011;6757;52.258;12.840;2023-10-08T13:48:30;1.40;;;1.30;;
7460;SDS011;6757;52.258;12.840;2023-10-08T13:50:59;1.38;;;1.27;;
7460;SDS011;6757;52.258;12.840;2023-10-08T13:53:28;1.45;;;0.90;;
7460;SDS011;6757;52.258;12.840;2023-10-08T13:55:57;2.42;;;1.08;;
7460;SDS011;6757;52.258;12.840;2023-10-08T13:58:26;3.00;;;1.20;;
7460;SDS011;6757;52.258;12.840;2023-10-08T14:00:54;1.75;;;0.93;;
7460;SDS011;6757;52.258;12.840;2023-10-08T14:03:26;2.13;;;1.35;;
7460;SDS011;6757;52.258;12.840;2023-10-08T14:05:55;2.90;;;0.85;;
7460;SDS011;6757;52.258;12.840;2023-10-08T14:08:27;2.47;;;0.90;;
7460;SDS011;6757;52.258;12.840;2023-10-08T14:10:55;1.83;;;1.00;;
7460;SDS011;6757;52.258;12.840;2023-10-08T14:13:27;2.25;;;0.68;;
7460;SDS011;6757;52.258;12.840;2023-10-08T14:15:56;1.30;;;1.17;;
7460;SDS011;6757;52.258;12.840;2023-10-08T14:18:23;3.97;;;1.38;;
7460;SDS011;6757;52.258;12.840;2023-10-08T14:20:54;2.50;;;1.20;;
7460;SDS011;6757;52.258;12.840;2023-10-08T14:23:21;1.58;;;0.90;;
7460;SDS011;6757;52.258;12.840;2023-10-08T14:25:50;2.95;;;1.23;;
7460;SDS011;6757;52.258;12.840;2023-10-08T14:28:17;3.70;;;1.10;;
7460;SDS011;6757;52.258;12.840;2023-10-08T14:31:05;2.53;;;1.30;;
7460;SDS011;6757;52.258;12.840;2023-10-08T14:33:34;4.15;;;1.48;;
7460;SDS011;6757;52.258;12.840;2023-10-08T14:36:07;1.33;;;1.13;;
7460;SDS011;6757;52.258;12.840;2023-10-08T14:38:52;2.30;;;1.17;;
7460;SDS011;6757;52.258;12.840;2023-10-08T14:41:36;1.50;;;0.85;;
7460;SDS011;6757;52.258;12.840;2023-10-08T14:44:20;1.65;;;0.90;;
7460;SDS011;6757;52.258;12.840;2023-10-08T14:46:48;3.05;;;1.35;;
7460;SDS011;6757;52.258;12.840;2023-10-08T14:49:16;2.47;;;1.05;;
7460;SDS011;6757;52.258;12.840;2023-10-08T14:51:43;1.13;;;0.95;;
7460;SDS011;6757;52.258;12.840;2023-10-08T14:54:14;2.80;;;1.00;;
7460;SDS011;6757;52.258;12.840;2023-10-08T14:56:40;2.50;;;1.15;;
7460;SDS011;6757;52.258;12.840;2023-10-08T14:59:07;2.00;;;0.85;;
7460;SDS011;6757;52.258;12.840;2023-10-08T15:01:34;3.08;;;1.30;;
7460;SDS011;6757;52.258;12.840;2023-10-08T15:04:01;1.42;;;0.90;;
7460;SDS011;6757;52.258;12.840;2023-10-08T15:06:31;1.30;;;1.05;;
7460;SDS011;6757;52.258;12.840;2023-10-08T15:08:58;2.75;;;1.00;;
7460;SDS011;6757;52.258;12.840;2023-10-08T15:11:26;0.90;;;0.90;;
7460;SDS011;6757;52.258;12.840;2023-10-08T15:13:55;4.70;;;1.42;;
7460;SDS011;6757;52.258;12.840;2023-10-08T15:16:22;1.98;;;1.00;;
7460;SDS011;6757;52.258;12.840;2023-10-08T15:18:51;0.77;;;0.77;;
7460;SDS011;6757;52.258;12.840;2023-10-08T15:21:18;2.55;;;1.38;;
7460;SDS011;6757;52.258;12.840;2023-10-08T15:23:47;3.13;;;1.15;;
7460;SDS011;6757;52.258;12.840;2023-10-08T15:26:14;7.50;;;2.08;;
7460;SDS011;6757;52.258;12.840;2023-10-08T15:28:42;1.77;;;1.50;;
7460;SDS011;6757;52.258;12.840;2023-10-08T15:31:08;2.95;;;1.70;;
7460;SDS011;6757;52.258;12.840;2023-10-08T15:33:35;2.15;;;1.40;;
7460;SDS011;6757;52.258;12.840;2023-10-08T15:36:03;3.67;;;1.98;;
7460;SDS011;6757;52.258;12.840;2023-10-08T15:38:30;1.50;;;1.38;;
7460;SDS011;6757;52.258;12.840;2023-10-08T15:40:58;3.20;;;1.45;;
7460;SDS011;6757;52.258;12.840;2023-10-08T15:43:26;2.83;;;1.38;;
7460;SDS011;6757;52.258;12.840;2023-10-08T15:45:52;2.53;;;1.20;;
7460;SDS011;6757;52.258;12.840;2023-10-08T15:48:19;1.40;;;1.05;;
7460;SDS011;6757;52.258;12.840;2023-10-08T15:50:46;4.57;;;1.48;;
7460;SDS011;6757;52.258;12.840;2023-10-08T15:53:13;3.50;;;1.70;;
7460;SDS011;6757;52.258;12.840;2023-10-08T15:55:40;2.28;;;1.40;;
7460;SDS011;6757;52.258;12.840;2023-10-08T15:58:08;1.13;;;1.08;;
7460;SDS011;6757;52.258;12.840;2023-10-08T16:00:35;1.83;;;0.98;;
7460;SDS011;6757;52.258;12.840;2023-10-08T16:03:02;1.70;;;1.27;;
7460;SDS011;6757;52.258;12.840;2023-10-08T16:05:30;3.10;;;1.33;;
7460;SDS011;6757;52.258;12.840;2023-10-08T16:07:56;2.85;;;1.40;;
7460;SDS011;6757;52.258;12.840;2023-10-08T16:10:24;1.88;;;1.20;;
7460;SDS011;6757;52.258;12.840;2023-10-08T16:12:51;1.73;;;1.25;;
7460;SDS011;6757;52.258;12.840;2023-10-08T16:15:19;2.85;;;1.02;;
7460;SDS011;6757;52.258;12.840;2023-10-08T16:17:46;1.95;;;1.40;;
7460;SDS011;6757;52.258;12.840;2023-10-08T16:20:14;1.08;;;1.08;;
7460;SDS011;6757;52.258;12.840;2023-10-08T16:22:43;2.90;;;1.63;;
7460;SDS011;6757;52.258;12.840;2023-10-08T16:25:12;4.35;;;1.80;;
7460;SDS011;6757;52.258;12.840;2023-10-08T16:27:41;2.53;;;1.58;;